Time;durP1;ratioP1;P1;durP2;ratioP2;P2;SDS_P1;SDS_P2;PMS_P1;PMS_P2;Temp;Humidity;BMP_temperature;BMP_pressure;BME280_temperature;BME280_humidity;BME280_pressure;Samples;Min_cycle;Max_cycle;Signal;HPM_P1;HPM_P2
2022/10/08 00:01:31;;;;;;;;;;;;;;;14.92;59.51;100527.69;4296248;33;20366;-87
2022/10/08 00:03:58;;;;;;;;;;;;;;;14.92;59.44;100527.69;4282934;33;19981;-87
2022/10/08 00:06:27;;;;;;;;;;;;;;;15.17;58.69;100523.56;4281708;33;20032;-93
2022/10/08 00:08:55;;;;;;;;;;;;;;;15.35;57.93;100529.81;4282464;33;19992;-85
2022/10/08 00:11:23;;;;;;;;;;;;;;;15.06;58.58;100532.19;4296274;33;20335;-89
2022/10/08 00:13:50;;;;;;;;;;;;;;;15.19;58.18;100522.72;4295887;33;20782;-86
2022/10/08 00:16:28;;;;;;;;;;;;;;;15.01;58.39;100522.56;4270642;33;20363;-89
2022/10/08 00:18:57;;;;;;;;;;;;;;;14.96;58.78;100519.03;4281977;33;19996;-84
2022/10/08 00:21:25;;;;;;;;;;;;;;;15.18;58.07;100513.12;4263352;33;19988;-92
2022/10/08 00:23:51;;;;;;;;;;;;;;;15.08;58.52;100513.91;4287337;33;19989;-86
2022/10/08 00:26:22;;;;;;;;;;;;;;;15.10;58.02;100512.22;4281457;33;20615;-88
2022/10/08 00:28:49;;;;;;;;;;;;;;;14.73;59.35;100514.47;4283763;33;20388;-86
2022/10/08 00:31:20;;;;;;;;;;;;;;;14.95;58.75;100512.06;4267982;33;20007;-87
2022/10/08 00:33:53;;;;;;;;;;;;;;;15.08;58.30;100513.91;4281873;33;19989;-90
2022/10/08 00:36:20;;;;;;;;;;;;;;;14.94;58.57;100507.72;4273795;33;20028;-90
2022/10/08 00:38:48;;;;;;;;;;;;;;;15.13;57.86;100496.59;4295576;33;20003;-84
2022/10/08 00:41:19;;;;;;;;;;;;;;;15.09;57.87;100494.81;4294413;33;19984;-86
2022/10/08 00:43:47;;;;;;;;;;;;;;;15.04;58.05;100496.50;4289883;33;20008;-88
2022/10/08 00:46:17;;;;;;;;;;;;;;;14.80;58.52;100485.00;4285518;33;19980;-90
2022/10/08 00:48:44;;;;;;;;;;;;;;;14.91;58.31;100485.09;4281264;33;19977;-83
2022/10/08 00:51:11;;;;;;;;;;;;;;;14.85;58.27;100485.91;4280986;33;20056;-86
2022/10/08 00:53:38;;;;;;;;;;;;;;;14.78;58.52;100483.25;4281197;33;19981;-90
2022/10/08 00:56:05;;;;;;;;;;;;;;;14.64;58.58;100475.28;4281266;33;19973;-89
2022/10/08 00:58:32;;;;;;;;;;;;;;;14.82;58.10;100475.47;4278861;33;20000;-83
2022/10/08 01:00:59;;;;;;;;;;;;;;;14.64;58.56;100470.06;4271632;33;19989;-89
2022/10/08 01:03:26;;;;;;;;;;;;;;;14.73;58.12;100477.97;4256293;33;20505;-87
2022/10/08 01:06:07;;;;;;;;;;;;;;;14.69;58.29;100476.22;4282736;33;20255;-84
2022/10/08 01:08:36;;;;;;;;;;;;;;;14.72;58.06;100473.63;4268809;33;19985;-89
2022/10/08 01:11:10;;;;;;;;;;;;;;;14.56;58.68;100482.16;4267271;33;20008;-84
2022/10/08 01:13:39;;;;;;;;;;;;;;;14.57;58.54;100476.09;4267059;33;19981;-87
2022/10/08 01:16:09;;;;;;;;;;;;;;;14.74;57.65;100471.94;4267589;33;20287;-83
2022/10/08 01:18:54;;;;;;;;;;;;;;;14.79;57.67;100469.34;4265767;33;20057;-89
2022/10/08 01:21:36;;;;;;;;;;;;;;;14.55;58.19;100470.87;4274327;33;20599;-87
2022/10/08 01:24:09;;;;;;;;;;;;;;;14.62;57.98;100461.38;4280397;33;20021;-88
2022/10/08 01:26:55;;;;;;;;;;;;;;;14.40;58.68;100466.34;4282861;33;19999;-87
2022/10/08 01:29:22;;;;;;;;;;;;;;;14.57;58.04;100457.84;4282429;33;20970;-85
2022/10/08 01:31:50;;;;;;;;;;;;;;;14.49;58.06;100464.69;4283008;33;20003;-86
2022/10/08 01:34:19;;;;;;;;;;;;;;;14.53;58.30;100456.09;4274555;33;20051;-88
2022/10/08 01:36:47;;;;;;;;;;;;;;;14.41;58.62;100457.66;4267515;33;20335;-89
2022/10/08 01:39:18;;;;;;;;;;;;;;;14.41;58.51;100449.84;4268293;33;20004;-83
2022/10/08 01:41:46;;;;;;;;;;;;;;;14.33;58.74;100454.13;4270031;33;19988;-85
2022/10/08 01:44:18;;;;;;;;;;;;;;;14.47;58.38;100445.56;4269463;33;19989;-84
2022/10/08 01:46:45;;;;;;;;;;;;;;;14.43;58.19;100445.53;4265580;33;19985;-88
2022/10/08 01:49:13;;;;;;;;;;;;;;;14.49;57.82;100442.12;4260697;33;20033;-87
2022/10/08 01:51:46;;;;;;;;;;;;;;;14.59;57.44;100435.31;4265373;33;20323;-89
2022/10/08 01:54:14;;;;;;;;;;;;;;;14.53;57.31;100435.25;4269716;33;19984;-87
2022/10/08 01:56:41;;;;;;;;;;;;;;;14.11;58.79;100432.19;4269420;33;19993;-87
2022/10/08 01:59:12;;;;;;;;;;;;;;;14.04;58.89;100435.56;4282469;33;20065;-84
2022/10/08 02:01:50;;;;;;;;;;;;;;;14.36;57.83;100428.09;4269624;33;20001;-87
2022/10/08 02:04:33;;;;;;;;;;;;;;;13.94;58.77;100434.59;4269423;33;20507;-84
2022/10/08 02:07:00;;;;;;;;;;;;;;;14.12;58.25;100435.66;4281961;33;20036;-81
2022/10/08 02:09:28;;;;;;;;;;;;;;;14.19;58.24;100430.50;4261851;33;19989;-87
2022/10/08 02:11:54;;;;;;;;;;;;;;;14.40;57.83;100429.00;4258292;33;20015;-83
2022/10/08 02:14:24;;;;;;;;;;;;;;;14.52;57.23;100418.75;4281972;33;20780;-88
2022/10/08 02:17:02;;;;;;;;;;;;;;;14.11;57.89;100429.56;4281705;33;20444;-89
2022/10/08 02:19:42;;;;;;;;;;;;;;;14.17;58.26;100431.38;4273863;33;20027;-84
2022/10/08 02:22:09;;;;;;;;;;;;;;;14.29;58.00;100426.28;4275174;33;20800;-83
2022/10/08 02:24:37;;;;;;;;;;;;;;;14.14;58.21;100427.00;4284064;33;19984;-81
2022/10/08 02:27:04;;;;;;;;;;;;;;;14.19;57.87;100424.44;4248242;33;20027;-84
2022/10/08 02:29:32;;;;;;;;;;;;;;;14.09;58.42;100426.06;4236469;33;20001;-85
2022/10/08 02:32:03;;;;;;;;;;;;;;;14.21;57.77;100422.72;4257053;33;19994;-87
2022/10/08 02:34:34;;;;;;;;;;;;;;;14.11;57.98;100421.75;4240300;33;20031;-87
2022/10/08 02:37:09;;;;;;;;;;;;;;;14.30;57.29;100412.41;4241152;33;20025;-89
2022/10/08 02:39:37;;;;;;;;;;;;;;;13.90;58.24;100417.16;4264467;33;20011;-81
2022/10/08 02:42:05;;;;;;;;;;;;;;;13.95;58.10;100415.50;4240521;33;20057;-84
2022/10/08 02:44:33;;;;;;;;;;;;;;;13.87;57.96;100414.53;4255067;33;20003;-84
2022/10/08 02:47:00;;;;;;;;;;;;;;;13.79;58.26;100408.38;4255073;33;19977;-81
2022/10/08 02:49:28;;;;;;;;;;;;;;;13.92;57.81;100419.81;4267865;33;19985;-83
2022/10/08 02:51:55;;;;;;;;;;;;;;;13.80;58.06;100412.72;4251034;33;19981;-83
2022/10/08 02:54:22;;;;;;;;;;;;;;;13.78;58.26;100417.03;4262125;33;20041;-85
2022/10/08 02:57:00;;;;;;;;;;;;;;;13.61;58.51;100409.00;4270164;33;20036;-84
2022/10/08 02:59:34;;;;;;;;;;;;;;;13.84;57.80;100411.88;4269797;33;20267;-88
2022/10/08 03:02:01;;;;;;;;;;;;;;;13.91;57.44;100413.75;4281470;33;21132;-84
2022/10/08 03:04:36;;;;;;;;;;;;;;;13.86;57.60;100411.94;4281549;33;20036;-84
2022/10/08 03:07:03;;;;;;;;;;;;;;;13.82;57.72;100411.03;4269553;33;20024;-86
2022/10/08 03:09:32;;;;;;;;;;;;;;;13.54;58.41;100407.19;4282305;33;19997;-81
2022/10/08 03:11:59;;;;;;;;;;;;;;;13.58;58.45;100413.31;4268723;33;20331;-84
2022/10/08 03:14:26;;;;;;;;;;;;;;;13.75;57.81;100410.91;4271225;33;20008;-83
2022/10/08 03:16:53;;;;;;;;;;;;;;;13.80;57.49;100409.25;4246195;33;20418;-87
2022/10/08 03:19:19;;;;;;;;;;;;;;;13.79;57.53;100408.38;4264372;33;20034;-81
2022/10/08 03:21:47;;;;;;;;;;;;;;;13.58;57.81;100413.31;4265379;33;20000;-80
2022/10/08 03:24:14;;;;;;;;;;;;;;;13.71;57.76;100404.81;4263328;33;20008;-86
2022/10/08 03:26:41;;;;;;;;;;;;;;;13.63;57.75;100411.66;4270713;33;20003;-84
2022/10/08 03:29:10;;;;;;;;;;;;;;;13.76;57.49;100410.06;4282253;33;20000;-86
2022/10/08 03:31:37;;;;;;;;;;;;;;;13.39;58.31;100417.38;4263977;33;19997;-86
2022/10/08 03:34:04;;;;;;;;;;;;;;;13.48;58.13;100413.19;4279942;33;19984;-87
2022/10/08 03:36:32;;;;;;;;;;;;;;;13.53;57.97;100415.88;4281565;33;20320;-86
2022/10/08 03:38:58;;;;;;;;;;;;;;;13.56;57.88;100415.00;4269079;33;19985;-82
2022/10/08 03:41:25;;;;;;;;;;;;;;;13.56;57.74;100415.00;4282186;33;20023;-82
2022/10/08 03:43:52;;;;;;;;;;;;;;;13.47;57.92;100419.25;4266707;33;20692;-88
2022/10/08 03:46:19;;;;;;;;;;;;;;;13.41;58.05;100416.56;4269716;33;19985;-92
2022/10/08 03:48:47;;;;;;;;;;;;;;;13.44;57.82;100411.41;4267653;33;20005;-85
2022/10/08 03:51:14;;;;;;;;;;;;;;;13.46;57.68;100412.31;4253290;33;19997;-80
2022/10/08 03:53:41;;;;;;;;;;;;;;;13.21;58.85;100417.97;4245764;33;19996;-85
2022/10/08 03:56:10;;;;;;;;;;;;;;;13.59;57.33;100409.84;4269232;33;20000;-89
2022/10/08 03:58:37;;;;;;;;;;;;;;;13.54;57.73;100411.53;4267437;33;19993;-80
2022/10/08 04:01:05;;;;;;;;;;;;;;;13.34;58.38;100417.34;4274346;33;20811;-82
2022/10/08 04:03:32;;;;;;;;;;;;;;;13.38;57.68;100411.31;4264451;33;20339;-81
2022/10/08 04:05:59;;;;;;;;;;;;;;;13.44;57.27;100411.41;4274289;33;20007;-85
2022/10/08 04:08:26;;;;;;;;;;;;;;;13.16;58.26;100398.84;4267167;33;20008;-84
2022/10/08 04:10:53;;;;;;;;;;;;;;;13.21;58.24;100402.38;4250823;33;20012;-87
2022/10/08 04:13:20;;;;;;;;;;;;;;;13.34;58.10;100404.34;4256249;33;20332;-83
2022/10/08 04:15:47;;;;;;;;;;;;;;;13.20;58.46;100400.63;4268749;33;19999;-86
2022/10/08 04:18:14;;;;;;;;;;;;;;;13.10;58.68;100398.75;4268830;33;20353;-87
2022/10/08 04:20:41;;;;;;;;;;;;;;;13.10;58.55;100398.75;4276900;33;20291;-81
2022/10/08 04:23:08;;;;;;;;;;;;;;;13.10;58.21;100393.53;4268871;33;19997;-80
2022/10/08 04:25:35;;;;;;;;;;;;;;;13.08;58.10;100396.13;4274673;33;20057;-90
2022/10/08 04:28:02;;;;;;;;;;;;;;;13.16;57.98;100396.22;4268507;33;20048;-90
2022/10/08 04:30:29;;;;;;;;;;;;;;;13.18;57.84;100391.94;4281706;33;20752;-89
2022/10/08 04:32:57;;;;;;;;;;;;;;;13.01;58.41;100399.47;4246206;33;20759;-82
2022/10/08 04:35:23;;;;;;;;;;;;;;;13.02;58.20;100399.50;4253282;33;19977;-86
2022/10/08 04:37:50;;;;;;;;;;;;;;;12.96;58.11;100398.53;4268439;33;19993;-91
2022/10/08 04:40:18;;;;;;;;;;;;;;;12.88;58.70;100403.59;4270865;33;20016;-81
2022/10/08 04:42:49;;;;;;;;;;;;;;;13.08;57.93;100400.44;4283450;33;20003;-87
2022/10/08 04:45:15;;;;;;;;;;;;;;;13.07;57.70;100402.16;4267181;33;22056;-89
2022/10/08 04:47:42;;;;;;;;;;;;;;;13.20;57.27;100400.63;4269453;33;19985;-92
2022/10/08 04:50:09;;;;;;;;;;;;;;;13.02;57.88;100399.50;4283716;33;19984;-86
2022/10/08 04:52:38;;;;;;;;;;;;;;;12.84;58.57;100395.75;4278120;33;20423;-87
2022/10/08 04:55:05;;;;;;;;;;;;;;;12.96;58.07;100394.22;4275378;33;20020;-83
2022/10/08 04:57:32;;;;;;;;;;;;;;;13.09;57.62;100391.81;4283011;33;20044;-89
2022/10/08 04:59:59;;;;;;;;;;;;;;;12.93;58.25;100395.91;4283002;33;19993;-90
2022/10/08 05:02:44;;;;;;;;;;;;;;;13.15;57.49;100397.09;4262278;33;19985;-89
2022/10/08 05:05:12;;;;;;;;;;;;;;;12.93;58.22;100396.75;4271612;33;19989;-91
2022/10/08 05:07:39;;;;;;;;;;;;;;;13.03;57.60;100398.66;4269050;33;19989;-89
2022/10/08 05:10:06;;;;;;;;;;;;;;;12.84;58.30;100395.75;4268507;33;20003;-89
2022/10/08 05:12:33;;;;;;;;;;;;;;;13.04;57.86;100399.50;4268415;33;20445;-91
2022/10/08 05:15:01;;;;;;;;;;;;;;;12.95;58.39;100408.03;4268342;33;20016;-92
2022/10/08 05:17:28;;;;;;;;;;;;;;;13.09;57.99;100402.19;4248707;33;19997;-86
2022/10/08 05:19:55;;;;;;;;;;;;;;;12.87;58.53;100407.06;4264840;33;20053;-92
2022/10/08 05:22:23;;;;;;;;;;;;;;;12.87;58.86;100398.41;4243012;33;20019;-87
2022/10/08 05:24:50;;;;;;;;;;;;;;;12.83;58.91;100397.47;4271786;33;19982;-87
2022/10/08 05:27:16;;;;;;;;;;;;;;;13.20;58.58;100401.47;4267102;33;20039;-94
2022/10/08 05:29:43;;;;;;;;;;;;;;;12.94;59.48;100398.50;4268641;33;20316;-86
2022/10/08 05:32:10;;;;;;;;;;;;;;;13.02;59.39;100409.91;4266318;33;20446;-83
2022/10/08 05:34:37;;;;;;;;;;;;;;;13.19;58.92;100404.06;4267281;33;20029;-86
2022/10/08 05:37:03;;;;;;;;;;;;;;;13.11;59.23;100405.69;4268121;33;20047;-88
2022/10/08 05:39:30;;;;;;;;;;;;;;;13.18;58.91;100412.75;4266399;33;19989;-83
2022/10/08 05:41:57;;;;;;;;;;;;;;;13.25;59.12;100414.59;4267953;33;20036;-83
2022/10/08 05:44:24;;;;;;;;;;;;;;;13.34;58.92;100414.72;4268212;33;19986;-84
2022/10/08 05:46:51;;;;;;;;;;;;;;;13.21;59.95;100417.97;4268445;33;20000;-87
2022/10/08 05:49:18;;;;;;;;;;;;;;;13.28;59.88;100414.66;4263147;33;19988;-89
2022/10/08 05:51:46;;;;;;;;;;;;;;;13.38;59.73;100411.31;4251541;33;19996;-83
2022/10/08 05:54:13;;;;;;;;;;;;;;;13.46;59.70;100425.31;4266461;33;19985;-85
2022/10/08 05:56:39;;;;;;;;;;;;;;;13.54;59.71;100421.94;4268177;33;20045;-81
2022/10/08 05:59:06;;;;;;;;;;;;;;;13.59;59.94;100430.66;4267726;33;19993;-82
2022/10/08 06:01:33;;;;;;;;;;;;;;;13.35;60.93;100429.47;4266014;33;19990;-85
2022/10/08 06:04:02;;;;;;;;;;;;;;;13.42;60.95;100433.91;4267778;33;19981;-83
2022/10/08 06:06:35;;;;;;;;;;;;;;;13.44;61.36;100434.81;4267696;33;20007;-88
2022/10/08 06:09:02;;;;;;;;;;;;;;;13.73;60.60;100429.12;4257413;33;20041;-81
2022/10/08 06:11:30;;;;;;;;;;;;;;;13.77;60.75;100425.69;4248807;33;20033;-85
2022/10/08 06:13:58;;;;;;;;;;;;;;;13.69;61.36;100429.94;4254712;33;20006;-83
2022/10/08 06:16:25;;;;;;;;;;;;;;;13.92;61.13;100436.28;4255178;33;20054;-85
2022/10/08 06:18:52;;;;;;;;;;;;;;;13.95;61.54;100436.34;4254514;33;20078;-85
2022/10/08 06:21:20;;;;;;;;;;;;;;;13.96;61.77;100437.19;4266521;33;20310;-85
2022/10/08 06:23:51;;;;;;;;;;;;;;;14.20;61.45;100439.22;4250426;33;19985;-85
2022/10/08 06:26:18;;;;;;;;;;;;;;;14.12;62.05;100439.12;4268846;33;20012;-83
2022/10/08 06:28:45;;;;;;;;;;;;;;;14.22;61.95;100442.69;4259517;33;20358;-84
2022/10/08 06:31:12;;;;;;;;;;;;;;;14.43;61.84;100448.13;4268428;33;19997;-87
2022/10/08 06:33:39;;;;;;;;;;;;;;;14.48;61.92;100442.09;4278318;33;20012;-83
2022/10/08 06:36:07;;;;;;;;;;;;;;;14.57;61.92;100437.00;4268518;33;20016;-86
2022/10/08 06:38:33;;;;;;;;;;;;;;;14.52;62.55;100438.72;4255455;33;20406;-86
2022/10/08 06:41:00;;;;;;;;;;;;;;;14.75;62.05;100442.41;4254258;33;19993;-87
2022/10/08 06:43:27;;;;;;;;;;;;;;;14.96;61.89;100446.03;4259434;33;20004;-92
2022/10/08 06:45:55;;;;;;;;;;;;;;;15.07;62.01;100445.25;4263928;33;20004;-86
2022/10/08 06:48:22;;;;;;;;;;;;;;;15.16;62.23;100444.47;4267859;33;19997;-83
2022/10/08 06:50:56;;;;;;;;;;;;;;;15.38;62.28;100449.81;4262043;33;19996;-82
2022/10/08 06:53:23;;;;;;;;;;;;;;;15.53;62.20;100455.13;4241729;33;20250;-82
2022/10/08 06:55:54;;;;;;;;;;;;;;;15.73;62.47;100450.94;4239351;33;20002;-83
2022/10/08 06:58:21;;;;;;;;;;;;;;;16.02;62.62;100450.19;4246163;33;19985;-83
2022/10/08 07:00:48;;;;;;;;;;;;;;;16.15;63.66;100457.19;4261847;33;19989;-82
2022/10/08 07:03:14;;;;;;;;;;;;;;;16.69;62.78;100455.56;4266554;33;20004;-82
2022/10/08 07:05:42;;;;;;;;;;;;;;;17.12;62.12;100454.72;4246765;33;19986;-84
2022/10/08 07:08:09;;;;;;;;;;;;;;;17.59;61.27;100452.00;4253490;33;20015;-83
2022/10/08 07:10:36;;;;;;;;;;;;;;;18.01;58.85;100450.13;4251935;33;19978;-82
2022/10/08 07:13:03;;;;;;;;;;;;;;;18.26;58.64;100445.66;4262868;33;20029;-83
2022/10/08 07:15:31;;;;;;;;;;;;;;;18.64;57.89;100446.31;4266261;33;20000;-84
2022/10/08 07:17:58;;;;;;;;;;;;;;;19.02;57.17;100433.78;4245409;33;20034;-83
2022/10/08 07:20:24;;;;;;;;;;;;;;;19.34;56.23;100445.72;4254970;33;20005;-84
2022/10/08 07:22:51;;;;;;;;;;;;;;;19.64;55.83;100443.66;4250760;33;20025;-84
2022/10/08 07:25:18;;;;;;;;;;;;;;;19.85;54.69;100443.44;4265674;33;19994;-84
2022/10/08 07:27:45;;;;;;;;;;;;;;;20.07;53.56;100443.13;4272760;33;20069;-84
2022/10/08 07:30:12;;;;;;;;;;;;;;;20.20;52.82;100444.72;4242336;33;19981;-84
2022/10/08 07:32:39;;;;;;;;;;;;;;;20.38;52.31;100436.56;4243279;33;19985;-84
2022/10/08 07:35:06;;;;;;;;;;;;;;;20.59;51.71;100443.31;4252275;33;19993;-83
2022/10/08 07:37:32;;;;;;;;;;;;;;;20.83;51.06;100443.81;4252824;33;20004;-83
2022/10/08 07:39:59;;;;;;;;;;;;;;;21.02;51.51;100436.47;4251660;33;20001;-84
2022/10/08 07:42:31;;;;;;;;;;;;;;;21.17;49.89;100433.56;4252029;33;19978;-84
2022/10/08 07:44:58;;;;;;;;;;;;;;;21.28;49.90;100431.62;4250961;33;20029;-84
2022/10/08 07:47:25;;;;;;;;;;;;;;;21.40;48.91;100433.19;4238414;33;20012;-84
2022/10/08 07:49:52;;;;;;;;;;;;;;;21.53;49.60;100432.03;4253150;33;20347;-84
2022/10/08 07:52:19;;;;;;;;;;;;;;;21.27;48.31;100437.78;4247505;33;19999;-83
2022/10/08 07:54:46;;;;;;;;;;;;;;;21.51;48.53;100431.22;4281140;33;20008;-83
2022/10/08 07:57:12;;;;;;;;;;;;;;;21.58;47.95;100439.88;4282176;33;19984;-84
2022/10/08 07:59:39;;;;;;;;;;;;;;;21.63;48.25;100424.81;4281603;33;19985;-84
2022/10/08 08:02:07;;;;;;;;;;;;;;;21.73;47.80;100431.66;4281598;33;20029;-83
2022/10/08 08:04:34;;;;;;;;;;;;;;;21.80;47.17;100428.00;4280996;33;19997;-84
2022/10/08 08:07:01;;;;;;;;;;;;;;;21.89;47.92;100426.06;4281495;33;19988;-83
2022/10/08 08:09:29;;;;;;;;;;;;;;;21.43;48.10;100437.53;4281289;33;19989;-83
2022/10/08 08:11:56;;;;;;;;;;;;;;;21.91;47.53;100430.41;4280918;33;20003;-83
2022/10/08 08:14:23;;;;;;;;;;;;;;;21.99;46.77;100432.88;4279706;33;20300;-83
2022/10/08 08:16:50;;;;;;;;;;;;;;;21.80;47.08;100422.72;4281082;33;20331;-83
2022/10/08 08:19:17;;;;;;;;;;;;;;;21.84;46.53;100428.78;4281723;33;19995;-83
2022/10/08 08:21:43;;;;;;;;;;;;;;;21.72;46.84;100423.78;4280027;33;20021;-84
2022/10/08 08:24:11;;;;;;;;;;;;;;;21.82;46.81;100420.94;4281320;33;20012;-84
2022/10/08 08:26:40;;;;;;;;;;;;;;;22.12;46.45;100423.81;4280559;33;20000;-83
2022/10/08 08:29:08;;;;;;;;;;;;;;;21.78;47.28;100427.16;4276195;33;20185;-83
2022/10/08 08:31:36;;;;;;;;;;;;;;;21.64;47.91;100421.31;4268312;33;20699;-83
2022/10/08 08:34:07;;;;;;;;;;;;;;;21.88;47.01;100424.31;4239951;33;874987;-83
2022/10/08 08:36:38;;;;;;;;;;;;;;;21.46;47.50;100421.66;4268272;33;20001;-82
2022/10/08 08:39:06;;;;;;;;;;;;;;;21.82;46.83;100418.31;4266743;33;20497;-82
2022/10/08 08:42:08;;;;;;;;;;;;;;;22.11;46.27;100419.41;4281283;33;19977;-82
2022/10/08 08:44:37;;;;;;;;;;;;;;;22.19;46.25;100425.44;4292936;33;20005;-82
2022/10/08 08:47:17;;;;;;;;;;;;;;;22.05;47.48;100423.06;4282779;33;20355;-82
2022/10/08 08:50:17;;;;;;;;;;;;;;;22.23;46.24;100421.81;4264413;33;20007;-82
2022/10/08 08:52:43;;;;;;;;;;;;;;;21.99;47.52;100417.94;4278384;33;20920;-82
2022/10/08 08:55:15;;;;;;;;;;;;;;;22.47;45.88;100420.41;4295543;33;20008;-81
2022/10/08 08:57:46;;;;;;;;;;;;;;;22.30;45.37;100412.00;4295638;33;19992;-83
2022/10/08 09:00:14;;;;;;;;;;;;;;;22.39;45.44;100411.78;4270674;33;20003;-82
2022/10/08 09:02:54;;;;;;;;;;;;;;;22.01;46.50;100415.25;4295563;33;20716;-82
2022/10/08 09:05:21;;;;;;;;;;;;;;;22.31;45.16;100415.53;4295193;33;20430;-82
2022/10/08 09:07:49;;;;;;;;;;;;;;;22.24;46.53;100418.31;4278284;33;20040;-82
2022/10/08 09:10:25;;;;;;;;;;;;;;;22.42;46.38;100416.13;4277835;33;19981;-82
2022/10/08 09:12:52;;;;;;;;;;;;;;;22.67;45.54;100417.28;4278633;33;19977;-82
2022/10/08 09:15:20;;;;;;;;;;;;;;;22.65;45.41;100413.78;4295031;33;20015;-82
2022/10/08 09:17:48;;;;;;;;;;;;;;;22.66;45.70;100420.81;4277159;33;20007;-82
2022/10/08 09:20:15;;;;;;;;;;;;;;;22.69;45.03;100420.75;4257860;33;20741;-82
2022/10/08 09:22:44;;;;;;;;;;;;;;;22.50;45.80;100416.81;4268136;33;19996;-82
2022/10/08 09:25:11;;;;;;;;;;;;;;;22.45;46.26;100410.78;4278536;33;20045;-83
2022/10/08 09:27:42;;;;;;;;;;;;;;;22.82;45.57;100415.19;4268548;33;19999;-82
2022/10/08 09:30:28;;;;;;;;;;;;;;;23.00;43.95;100408.56;4243081;33;19990;-83
2022/10/08 09:32:56;;;;;;;;;;;;;;;22.99;44.09;100413.00;4283268;33;19991;-83
2022/10/08 09:35:23;;;;;;;;;;;;;;;22.87;44.97;100408.00;4282034;33;20007;-83
2022/10/08 09:37:50;;;;;;;;;;;;;;;22.88;44.56;100407.97;4257731;33;20376;-83
2022/10/08 09:40:19;;;;;;;;;;;;;;;23.06;44.83;100414.56;4278921;33;19985;-83
2022/10/08 09:43:01;;;;;;;;;;;;;;;22.78;45.09;100418.78;4269325;33;19981;-83
2022/10/08 09:45:32;;;;;;;;;;;;;;;23.14;44.72;100412.59;4266858;33;20354;-83
2022/10/08 09:48:18;;;;;;;;;;;;;;;22.96;44.10;100405.16;4282958;33;20011;-82
2022/10/08 09:50:46;;;;;;;;;;;;;;;23.14;43.50;100402.03;4264934;33;19993;-82
2022/10/08 09:53:13;;;;;;;;;;;;;;;23.27;44.16;100397.28;4267372;33;19981;-82
2022/10/08 09:55:40;;;;;;;;;;;;;;;22.95;44.83;100390.22;4268332;33;19985;-81
2022/10/08 09:58:08;;;;;;;;;;;;;;;22.94;45.19;100389.37;4255304;33;19992;-82
2022/10/08 10:00:36;;;;;;;;;;;;;;;23.35;42.58;100394.41;4255469;33;20057;-82
2022/10/08 10:03:03;;;;;;;;;;;;;;;23.38;42.42;100391.69;4245965;33;20460;-82
2022/10/08 10:05:31;;;;;;;;;;;;;;;23.49;43.20;100387.00;4257094;33;20004;-83
2022/10/08 10:07:58;;;;;;;;;;;;;;;23.18;43.72;100386.97;4254163;33;19994;-83
2022/10/08 10:10:28;;;;;;;;;;;;;;;23.44;43.09;100383.59;4238620;33;19990;-83
2022/10/08 10:13:00;;;;;;;;;;;;;;;23.45;43.20;100380.03;4253687;33;19981;-83
2022/10/08 10:15:30;;;;;;;;;;;;;;;23.17;44.61;100385.25;4248089;33;19989;-84
2022/10/08 10:17:58;;;;;;;;;;;;;;;23.36;43.58;100373.25;4232738;33;19993;-85
2022/10/08 10:20:26;;;;;;;;;;;;;;;23.50;43.09;100370.22;4251425;33;20009;-84
2022/10/08 10:22:55;;;;;;;;;;;;;;;23.51;44.38;100374.59;4236015;33;20339;-84
2022/10/08 10:25:28;;;;;;;;;;;;;;;23.57;43.55;100366.47;4242056;33;20015;-84
2022/10/08 10:28:00;;;;;;;;;;;;;;;23.66;42.94;100368.84;4276073;33;19989;-83
2022/10/08 10:30:27;;;;;;;;;;;;;;;23.66;42.14;100360.94;4282370;33;19976;-81
2022/10/08 10:33:14;;;;;;;;;;;;;;;23.56;42.51;100351.53;4278263;33;20312;-84
2022/10/08 10:35:45;;;;;;;;;;;;;;;23.81;41.70;100345.56;4268753;33;19980;-80
2022/10/08 10:38:14;;;;;;;;;;;;;;;23.82;40.79;100342.00;4269350;33;19991;-81
2022/10/08 10:40:42;;;;;;;;;;;;;;;23.87;40.71;100345.37;4267418;33;20007;-83
2022/10/08 10:43:17;;;;;;;;;;;;;;;23.89;39.97;100338.25;4261107;33;19993;-83
2022/10/08 10:45:47;;;;;;;;;;;;;;;23.67;40.14;100338.00;4245819;33;20348;-83
2022/10/08 10:48:13;;;;;;;;;;;;;;;23.79;41.67;100332.37;4264654;33;19977;-84
2022/10/08 10:50:45;;;;;;;;;;;;;;;23.82;39.23;100326.13;4253859;33;19997;-82
2022/10/08 10:53:12;;;;;;;;;;;;;;;23.96;39.67;100329.22;4266297;33;19977;-82
2022/10/08 10:55:39;;;;;;;;;;;;;;;24.22;38.69;100319.56;4267874;33;20418;-84
2022/10/08 10:58:18;;;;;;;;;;;;;;;24.17;39.58;100318.87;4268635;33;20344;-83
2022/10/08 11:00:45;;;;;;;;;;;;;;;24.06;41.93;100320.09;4281683;33;20000;-81
2022/10/08 11:03:21;;;;;;;;;;;;;;;23.63;39.47;100313.44;4282920;33;20011;-82
2022/10/08 11:05:49;;;;;;;;;;;;;;;23.92;40.04;100302.91;4270991;33;20012;-81
2022/10/08 11:08:31;;;;;;;;;;;;;;;24.35;39.52;100307.69;4262912;33;19981;-82
2022/10/08 11:11:07;;;;;;;;;;;;;;;24.03;38.92;100309.59;4250382;33;19986;-82
2022/10/08 11:13:37;;;;;;;;;;;;;;;23.82;40.49;100305.84;4267624;33;19996;-82
2022/10/08 11:16:10;;;;;;;;;;;;;;;24.26;37.95;100297.41;4268157;33;20047;-83
2022/10/08 11:18:46;;;;;;;;;;;;;;;23.75;41.29;100309.59;4267976;33;20017;-82
2022/10/08 11:21:36;;;;;;;;;;;;;;;23.75;39.78;100298.16;4253118;33;19997;-83
2022/10/08 11:24:06;;;;;;;;;;;;;;;23.71;39.55;100296.50;4271473;33;19991;-84
2022/10/08 11:26:36;;;;;;;;;;;;;;;23.70;40.04;100294.78;4267744;33;20004;-83
2022/10/08 11:29:16;;;;;;;;;;;;;;;24.09;39.76;100293.53;4268084;33;20004;-82
2022/10/08 11:31:43;;;;;;;;;;;;;;;24.29;39.85;100282.31;4255036;33;19981;-82
2022/10/08 11:34:19;;;;;;;;;;;;;;;24.25;39.08;100280.69;4266996;33;20324;-84
2022/10/08 11:37:07;;;;;;;;;;;;;;;24.09;37.86;100282.06;4266004;33;20015;-82
2022/10/08 11:39:57;;;;;;;;;;;;;;;24.08;40.01;100281.22;4241225;33;20850;-84
2022/10/08 11:42:42;;;;;;;;;;;;;;;23.72;39.85;100282.41;4254755;33;19998;-83
2022/10/08 11:45:23;;;;;;;;;;;;;;;24.30;40.39;100280.53;4263466;33;20092;-84
2022/10/08 11:47:52;;;;;;;;;;;;;;;24.24;39.21;100278.06;4252435;33;20069;-81
2022/10/08 11:50:28;;;;;;;;;;;;;;;24.36;37.83;100280.31;4265244;33;20032;-82
2022/10/08 11:52:56;;;;;;;;;;;;;;;23.58;39.19;100269.56;4271556;33;19985;-82
2022/10/08 11:55:24;;;;;;;;;;;;;;;23.79;39.04;100270.72;4249275;33;19981;-80
2022/10/08 11:57:58;;;;;;;;;;;;;;;23.91;38.69;100267.69;4254209;33;20003;-84
2022/10/08 12:00:41;;;;;;;;;;;;;;;23.91;39.47;100262.41;4267891;33;19993;-82
2022/10/08 12:03:25;;;;;;;;;;;;;;;24.07;39.86;100258.34;4246555;33;19985;-81
2022/10/08 12:05:53;;;;;;;;;;;;;;;24.17;39.16;100252.75;4268656;33;19989;-80
2022/10/08 12:08:39;;;;;;;;;;;;;;;24.24;38.67;100256.91;4263837;33;19988;-80
2022/10/08 12:11:24;;;;;;;;;;;;;;;24.35;37.85;100252.12;4282077;33;19989;-80
2022/10/08 12:14:18;;;;;;;;;;;;;;;24.44;40.18;100251.84;4280876;33;19997;-81
2022/10/08 12:16:48;;;;;;;;;;;;;;;24.07;38.32;100247.75;4276163;33;20007;-77
2022/10/08 12:19:36;;;;;;;;;;;;;;;23.84;39.37;100245.88;4280164;33;20000;-80
2022/10/08 12:22:13;;;;;;;;;;;;;;;23.92;39.42;100242.97;4274428;33;20004;-80
2022/10/08 12:24:39;;;;;;;;;;;;;;;24.28;39.51;100240.00;4258221;33;20338;-81
2022/10/08 12:27:17;;;;;;;;;;;;;;;24.20;39.76;100242.06;4281449;33;19985;-81
2022/10/08 12:30:04;;;;;;;;;;;;;;;24.23;39.19;100237.53;4281645;33;19997;-81
2022/10/08 12:32:40;;;;;;;;;;;;;;;23.98;41.02;100232.19;4281521;33;19981;-81
2022/10/08 12:35:24;;;;;;;;;;;;;;;24.11;38.84;100237.94;4280483;33;19977;-81
2022/10/08 12:37:50;;;;;;;;;;;;;;;23.92;40.17;100231.53;4267827;33;19992;-84
2022/10/08 12:40:20;;;;;;;;;;;;;;;23.80;39.18;100227.50;4281228;33;19993;-81
2022/10/08 12:42:47;;;;;;;;;;;;;;;24.02;39.84;100225.00;4280855;33;19985;-82
2022/10/08 12:45:24;;;;;;;;;;;;;;;23.99;39.34;100218.03;4267938;33;19981;-80
2022/10/08 12:47:54;;;;;;;;;;;;;;;23.83;39.45;100216.81;4268243;33;20351;-79
2022/10/08 12:50:39;;;;;;;;;;;;;;;23.71;38.85;100227.78;4280893;33;20702;-80